San Pedro, Texas
Current Conditions -  °F | °C
As of 5:10 PM on Saturday 20 Dec 2014 (Local Time) from KRBO Reporting Station
Overcast Overcast  
Wind Chill: 57°   Ceiling: 1700
Heat Index: 57°   Visibility: 10mi
Dew Point: 52°   Wind: 6mph
Humidity: 84%   Direction: 340°NNW
Pressure: 30.15"   Gusts: NA
Location:  27.7757°N, 97.7554°W
Report Text: KRBO 202310Z AUTO 34005KT 10SM OVC017 14/11 A3015 RMK AO2 T01370110
Loading
Personal Weather Stations






























Interactive Weather Map New forecast layout! Learn more

10-Day Weather Forecast

Advertisements
Track Severe Weather on mobile